sensor_id;sensor_type;location;lat;lon;timestamp;pressure;altitude;pressure_sealevel;temperature;humidity
29549;BME280;16487;53.094;8.800;2023-02-01T00:00:06;100217.84;;;6.15;100.00
29549;BME280;16487;53.094;8.800;2023-02-01T00:02:33;100189.16;;;6.09;100.00
29549;BME280;16487;53.094;8.800;2023-02-01T00:05:00;100202.13;;;6.12;100.00
29549;BME280;16487;53.094;8.800;2023-02-01T00:07:28;100215.09;;;6.15;100.00
29549;BME280;16487;53.094;8.800;2023-02-01T00:09:55;100215.94;;;6.12;100.00
29549;BME280;16487;53.094;8.800;2023-02-01T00:12:22;100221.06;;;6.14;100.00
29549;BME280;16487;53.094;8.800;2023-02-01T00:14:49;100218.06;;;6.24;100.00
29549;BME280;16487;53.094;8.800;2023-02-01T00:17:18;100192.81;;;6.22;100.00
29549;BME280;16487;53.094;8.800;2023-02-01T00:19:45;100193.31;;;6.17;100.00
29549;BME280;16487;53.094;8.800;2023-02-01T00:22:13;100190.53;;;6.17;100.00
29549;BME280;16487;53.094;8.800;2023-02-01T00:24:40;100188.13;;;6.19;100.00
29549;BME280;16487;53.094;8.800;2023-02-01T00:27:07;100207.88;;;6.21;100.00
29549;BME280;16487;53.094;8.800;2023-02-01T00:29:35;100182.53;;;6.23;100.00
29549;BME280;16487;53.094;8.800;2023-02-01T00:32:04;100187.19;;;6.26;100.00
29549;BME280;16487;53.094;8.800;2023-02-01T00:34:33;100180.88;;;6.25;100.00
29549;BME280;16487;53.094;8.800;2023-02-01T00:37:00;100182.88;;;6.25;100.00
29549;BME280;16487;53.094;8.800;2023-02-01T00:39:27;100182.31;;;6.33;100.00
29549;BME280;16487;53.094;8.800;2023-02-01T00:41:54;100177.28;;;6.28;100.00
29549;BME280;16487;53.094;8.800;2023-02-01T00:44:22;100179.75;;;6.23;100.00
29549;BME280;16487;53.094;8.800;2023-02-01T00:46:49;100177.28;;;6.28;100.00
29549;BME280;16487;53.094;8.800;2023-02-01T00:49:16;100190.31;;;6.28;100.00
29549;BME280;16487;53.094;8.800;2023-02-01T00:51:45;100177.53;;;6.34;100.00
29549;BME280;16487;53.094;8.800;2023-02-01T00:54:12;100175.69;;;6.27;100.00
29549;BME280;16487;53.094;8.800;2023-02-01T00:56:40;100174.50;;;6.28;100.00
29549;BME280;16487;53.094;8.800;2023-02-01T00:59:10;100167.75;;;6.29;100.00
29549;BME280;16487;53.094;8.800;2023-02-01T01:01:37;100162.06;;;6.36;100.00
29549;BME280;16487;53.094;8.800;2023-02-01T01:04:05;100153.69;;;6.40;100.00
29549;BME280;16487;53.094;8.800;2023-02-01T01:06:33;100141.91;;;6.36;100.00
29549;BME280;16487;53.094;8.800;2023-02-01T01:09:07;100148.75;;;6.31;100.00
29549;BME280;16487;53.094;8.800;2023-02-01T01:11:36;100151.94;;;6.30;100.00
29549;BME280;16487;53.094;8.800;2023-02-01T01:14:06;100142.00;;;6.32;100.00
29549;BME280;16487;53.094;8.800;2023-02-01T01:16:35;100153.78;;;6.36;100.00
29549;BME280;16487;53.094;8.800;2023-02-01T01:19:03;100153.06;;;6.32;100.00
29549;BME280;16487;53.094;8.800;2023-02-01T01:21:31;100140.28;;;6.38;100.00
29549;BME280;16487;53.094;8.800;2023-02-01T01:23:58;100132.84;;;6.35;100.00
29549;BME280;16487;53.094;8.800;2023-02-01T01:26:28;100128.16;;;6.32;100.00
29549;BME280;16487;53.094;8.800;2023-02-01T01:28:57;100130.69;;;6.43;100.00
29549;BME280;16487;53.094;8.800;2023-02-01T01:31:26;100124.41;;;6.42;100.00
29549;BME280;16487;53.094;8.800;2023-02-01T01:33:56;100134.75;;;6.38;100.00
29549;BME280;16487;53.094;8.800;2023-02-01T01:36:25;100122.81;;;6.41;100.00
29549;BME280;16487;53.094;8.800;2023-02-01T01:38:52;100114.09;;;6.43;100.00
29549;BME280;16487;53.094;8.800;2023-02-01T01:41:22;100116.56;;;6.37;100.00
29549;BME280;16487;53.094;8.800;2023-02-01T01:43:55;100113.31;;;6.42;100.00
29549;BME280;16487;53.094;8.800;2023-02-01T01:46:25;100135.19;;;6.37;100.00
29549;BME280;16487;53.094;8.800;2023-02-01T01:48:59;100107.09;;;6.38;100.00
29549;BME280;16487;53.094;8.800;2023-02-01T01:51:29;100129.22;;;6.38;100.00
29549;BME280;16487;53.094;8.800;2023-02-01T01:54:02;100112.09;;;6.43;100.00
29549;BME280;16487;53.094;8.800;2023-02-01T01:56:32;100094.88;;;6.36;100.00
29549;BME280;16487;53.094;8.800;2023-02-01T01:59:03;100129.22;;;6.38;100.00
29549;BME280;16487;53.094;8.800;2023-02-01T02:01:31;100100.06;;;6.34;100.00
29549;BME280;16487;53.094;8.800;2023-02-01T02:03:59;100079.06;;;6.36;100.00
29549;BME280;16487;53.094;8.800;2023-02-01T02:06:35;100092.03;;;6.39;100.00
29549;BME280;16487;53.094;8.800;2023-02-01T02:09:04;100092.91;;;6.36;100.00
29549;BME280;16487;53.094;8.800;2023-02-01T02:11:33;100078.34;;;6.32;100.00
29549;BME280;16487;53.094;8.800;2023-02-01T02:14:02;100094.28;;;6.28;100.00
29549;BME280;16487;53.094;8.800;2023-02-01T02:16:49;100083.22;;;6.28;100.00
29549;BME280;16487;53.094;8.800;2023-02-01T02:22:45;100084.31;;;6.31;100.00
29549;BME280;16487;53.094;8.800;2023-02-01T02:25:46;100075.66;;;6.29;100.00
29549;BME280;16487;53.094;8.800;2023-02-01T02:28:32;100061.75;;;6.32;100.00
29549;BME280;16487;53.094;8.800;2023-02-01T02:31:18;100066.84;;;6.34;100.00
29549;BME280;16487;53.094;8.800;2023-02-01T02:34:03;100058.97;;;6.32;100.00
29549;BME280;16487;53.094;8.800;2023-02-01T02:36:40;100063.75;;;6.32;100.00
29549;BME280;16487;53.094;8.800;2023-02-01T02:39:17;100052.69;;;6.32;100.00
29549;BME280;16487;53.094;8.800;2023-02-01T02:41:55;100050.34;;;6.30;100.00
29549;BME280;16487;53.094;8.800;2023-02-01T02:44:35;100044.47;;;6.28;100.00
29549;BME280;16487;53.094;8.800;2023-02-01T02:47:10;100048.25;;;6.34;100.00
29549;BME280;16487;53.094;8.800;2023-02-01T02:49:45;100045.59;;;6.31;100.00
29549;BME280;16487;53.094;8.800;2023-02-01T02:52:19;100058.22;;;6.32;100.00
29549;BME280;16487;53.094;8.800;2023-02-01T02:54:49;100070.56;;;6.27;100.00
29549;BME280;16487;53.094;8.800;2023-02-01T02:57:21;100051.13;;;6.31;100.00
29549;BME280;16487;53.094;8.800;2023-02-01T02:59:51;100055.97;;;6.27;100.00
29549;BME280;16487;53.094;8.800;2023-02-01T03:02:20;100049.66;;;6.26;100.00
29549;BME280;16487;53.094;8.800;2023-02-01T03:04:53;100048.06;;;6.25;100.00
29549;BME280;16487;53.094;8.800;2023-02-01T03:10:42;100036.16;;;6.28;100.00
29549;BME280;16487;53.094;8.800;2023-02-01T03:13:16;100045.66;;;6.27;100.00
29549;BME280;16487;53.094;8.800;2023-02-01T03:15:51;100046.97;;;6.23;100.00
29549;BME280;16487;53.094;8.800;2023-02-01T03:18:24;100035.19;;;6.19;100.00
29549;BME280;16487;53.094;8.800;2023-02-01T03:20:55;100049.38;;;6.21;100.00
29549;BME280;16487;53.094;8.800;2023-02-01T03:23:26;100040.72;;;6.19;100.00
29549;BME280;16487;53.094;8.800;2023-02-01T03:25:57;100050.75;;;6.13;100.00
29549;BME280;16487;53.094;8.800;2023-02-01T03:28:28;100053.41;;;6.00;100.00
29549;BME280;16487;53.094;8.800;2023-02-01T03:30:57;100073.50;;;5.85;100.00
29549;BME280;16487;53.094;8.800;2023-02-01T03:33:26;100105.38;;;5.69;100.00
29549;BME280;16487;53.094;8.800;2023-02-01T03:36:01;100102.47;;;5.57;100.00
29549;BME280;16487;53.094;8.800;2023-02-01T03:38:32;100152.72;;;5.52;100.00
29549;BME280;16487;53.094;8.800;2023-02-01T03:41:11;100169.91;;;5.40;100.00
29549;BME280;16487;53.094;8.800;2023-02-01T03:43:47;100190.06;;;5.37;100.00
29549;BME280;16487;53.094;8.800;2023-02-01T03:46:24;100185.88;;;5.29;100.00
29549;BME280;16487;53.094;8.800;2023-02-01T03:48:53;100184.34;;;5.28;100.00
29549;BME280;16487;53.094;8.800;2023-02-01T03:51:23;100183.59;;;5.24;100.00
29549;BME280;16487;53.094;8.800;2023-02-01T03:53:53;100222.34;;;5.20;100.00
29549;BME280;16487;53.094;8.800;2023-02-01T03:56:23;100227.91;;;5.17;100.00
29549;BME280;16487;53.094;8.800;2023-02-01T03:58:52;100260.59;;;5.22;100.00
29549;BME280;16487;53.094;8.800;2023-02-01T04:01:19;100247.56;;;5.22;100.00
29549;BME280;16487;53.094;8.800;2023-02-01T04:03:47;100253.13;;;5.19;100.00
29549;BME280;16487;53.094;8.800;2023-02-01T04:06:14;100266.94;;;5.19;100.00
29549;BME280;16487;53.094;8.800;2023-02-01T04:08:43;100258.28;;;5.17;100.00
29549;BME280;16487;53.094;8.800;2023-02-01T04:11:10;100274.13;;;5.13;100.00
29549;BME280;16487;53.094;8.800;2023-02-01T04:13:38;100264.78;;;5.07;100.00
29549;BME280;16487;53.094;8.800;2023-02-01T04:16:05;100274.75;;;4.97;100.00
29549;BME280;16487;53.094;8.800;2023-02-01T04:18:33;100288.63;;;4.94;100.00
29549;BME280;16487;53.094;8.800;2023-02-01T04:21:00;100285.84;;;4.94;100.00
29549;BME280;16487;53.094;8.800;2023-02-01T04:23:27;100277.19;;;4.95;100.00
29549;BME280;16487;53.094;8.800;2023-02-01T04:26:00;100249.50;;;4.99;100.00
29549;BME280;16487;53.094;8.800;2023-02-01T04:28:28;100261.69;;;5.01;100.00
29549;BME280;16487;53.094;8.800;2023-02-01T04:30:55;100284.16;;;5.03;100.00
29549;BME280;16487;53.094;8.800;2023-02-01T04:33:23;100294.34;;;5.06;100.00
29549;BME280;16487;53.094;8.800;2023-02-01T04:35:50;100280.03;;;5.15;100.00
29549;BME280;16487;53.094;8.800;2023-02-01T04:38:18;100292.22;;;5.17;100.00
29549;BME280;16487;53.094;8.800;2023-02-01T04:40:47;100291.72;;;5.26;100.00
29549;BME280;16487;53.094;8.800;2023-02-01T04:43:16;100272.75;;;5.28;100.00
29549;BME280;16487;53.094;8.800;2023-02-01T04:45:47;100289.19;;;5.35;100.00
29549;BME280;16487;53.094;8.800;2023-02-01T04:48:14;100278.53;;;5.33;100.00
29549;BME280;16487;53.094;8.800;2023-02-01T04:50:42;100284.50;;;5.32;100.00
29549;BME280;16487;53.094;8.800;2023-02-01T04:53:10;100287.50;;;5.41;100.00
29549;BME280;16487;53.094;8.800;2023-02-01T04:55:37;100264.28;;;5.38;100.00
29549;BME280;16487;53.094;8.800;2023-02-01T04:58:04;100251.22;;;5.39;100.00
29549;BME280;16487;53.094;8.800;2023-02-01T05:00:34;100256.75;;;5.39;100.00
29549;BME280;16487;53.094;8.800;2023-02-01T05:03:01;100260.66;;;5.41;100.00
29549;BME280;16487;53.094;8.800;2023-02-01T05:05:29;100267.31;;;5.44;100.00
29549;BME280;16487;53.094;8.800;2023-02-01T05:07:56;100242.44;;;5.44;100.00
29549;BME280;16487;53.094;8.800;2023-02-01T05:10:23;100240.06;;;5.46;100.00
29549;BME280;16487;53.094;8.800;2023-02-01T05:12:51;100224.19;;;5.50;100.00
29549;BME280;16487;53.094;8.800;2023-02-01T05:15:18;100232.91;;;5.48;100.00
29549;BME280;16487;53.094;8.800;2023-02-01T05:17:47;100217.41;;;5.54;100.00
29549;BME280;16487;53.094;8.800;2023-02-01T05:20:14;100242.34;;;5.51;100.00
29549;BME280;16487;53.094;8.800;2023-02-01T05:22:42;100210.03;;;5.48;100.00
29549;BME280;16487;53.094;8.800;2023-02-01T05:25:09;100208.91;;;5.45;100.00
29549;BME280;16487;53.094;8.800;2023-02-01T05:27:36;100211.56;;;5.49;100.00
29549;BME280;16487;53.094;8.800;2023-02-01T05:30:05;100206.41;;;5.51;100.00
29549;BME280;16487;53.094;8.800;2023-02-01T05:32:32;100217.09;;;5.49;100.00
29549;BME280;16487;53.094;8.800;2023-02-01T05:35:01;100261.25;;;5.52;100.00
29549;BME280;16487;53.094;8.800;2023-02-01T05:37:29;100230.53;;;5.50;100.00
29549;BME280;16487;53.094;8.800;2023-02-01T05:39:56;100240.00;;;5.49;100.00
29549;BME280;16487;53.094;8.800;2023-02-01T05:42:23;100213.16;;;5.50;100.00
29549;BME280;16487;53.094;8.800;2023-02-01T05:44:50;100243.19;;;5.48;100.00
29549;BME280;16487;53.094;8.800;2023-02-01T05:47:18;100208.00;;;5.52;100.00
29549;BME280;16487;53.094;8.800;2023-02-01T05:49:45;100196.56;;;5.50;100.00
29549;BME280;16487;53.094;8.800;2023-02-01T05:52:14;100198.13;;;5.51;100.00
29549;BME280;16487;53.094;8.800;2023-02-01T05:54:41;100196.56;;;5.50;100.00
29549;BME280;16487;53.094;8.800;2023-02-01T05:57:08;100214.63;;;5.54;100.00
29549;BME280;16487;53.094;8.800;2023-02-01T05:59:35;100200.19;;;5.47;100.00
29549;BME280;16487;53.094;8.800;2023-02-01T06:02:03;100225.94;;;5.40;100.00
29549;BME280;16487;53.094;8.800;2023-02-01T06:04:30;100235.13;;;5.34;100.00
29549;BME280;16487;53.094;8.800;2023-02-01T06:06:57;100246.19;;;5.34;100.00
29549;BME280;16487;53.094;8.800;2023-02-01T06:09:26;100245.81;;;5.32;100.00
29549;BME280;16487;53.094;8.800;2023-02-01T06:11:53;100260.41;;;5.32;100.00
29549;BME280;16487;53.094;8.800;2023-02-01T06:14:20;100263.22;;;5.29;100.00
29549;BME280;16487;53.094;8.800;2023-02-01T06:16:48;100266.41;;;5.27;100.00
29549;BME280;16487;53.094;8.800;2023-02-01T06:19:15;100274.66;;;5.31;100.00
29549;BME280;16487;53.094;8.800;2023-02-01T06:21:42;100280.53;;;5.33;100.00
29549;BME280;16487;53.094;8.800;2023-02-01T06:24:10;100294.72;;;5.35;100.00
29549;BME280;16487;53.094;8.800;2023-02-01T06:26:38;100306.91;;;5.37;100.00
29549;BME280;16487;53.094;8.800;2023-02-01T06:29:06;100293.03;;;5.41;100.00
29549;BME280;16487;53.094;8.800;2023-02-01T06:31:33;100299.41;;;5.38;100.00
29549;BME280;16487;53.094;8.800;2023-02-01T06:34:01;100297.81;;;5.37;100.00
29549;BME280;16487;53.094;8.800;2023-02-01T06:36:29;100297.81;;;5.37;100.00
29549;BME280;16487;53.094;8.800;2023-02-01T06:38:56;100286.78;;;5.37;100.00
29549;BME280;16487;53.094;8.800;2023-02-01T06:41:23;100291.50;;;5.40;100.00
29549;BME280;16487;53.094;8.800;2023-02-01T06:43:52;100296.06;;;5.50;100.00
29549;BME280;16487;53.094;8.800;2023-02-01T06:46:20;100299.19;;;5.52;100.00
29549;BME280;16487;53.094;8.800;2023-02-01T06:48:47;100277.78;;;5.56;100.00
29549;BME280;16487;53.094;8.800;2023-02-01T06:51:20;100285.72;;;5.54;100.00
29549;BME280;16487;53.094;8.800;2023-02-01T06:53:47;100275.81;;;5.56;100.00
29549;BME280;16487;53.094;8.800;2023-02-01T06:56:15;100285.13;;;5.66;100.00
29549;BME280;16487;53.094;8.800;2023-02-01T06:58:42;100289.81;;;5.69;100.00
29549;BME280;16487;53.094;8.800;2023-02-01T07:01:11;100280.72;;;5.68;100.00
29549;BME280;16487;53.094;8.800;2023-02-01T07:03:39;100313.47;;;5.70;100.00
29549;BME280;16487;53.094;8.800;2023-02-01T07:06:07;100270.09;;;5.67;100.00
29549;BME280;16487;53.094;8.800;2023-02-01T07:08:36;100254.47;;;5.57;100.00
29549;BME280;16487;53.094;8.800;2023-02-01T07:11:04;100267.63;;;5.49;100.00
29549;BME280;16487;53.094;8.800;2023-02-01T07:13:32;100270.25;;;5.33;100.00
29549;BME280;16487;53.094;8.800;2023-02-01T07:16:00;100272.00;;;5.24;100.00
29549;BME280;16487;53.094;8.800;2023-02-01T07:18:30;100290.53;;;5.23;100.00
29549;BME280;16487;53.094;8.800;2023-02-01T07:20:58;100281.03;;;5.28;100.00
29549;BME280;16487;53.094;8.800;2023-02-01T07:23:26;100306.59;;;5.32;100.00
29549;BME280;16487;53.094;8.800;2023-02-01T07:25:54;100298.31;;;5.32;100.00
29549;BME280;16487;53.094;8.800;2023-02-01T07:28:22;100326.41;;;5.27;100.00
29549;BME280;16487;53.094;8.800;2023-02-01T07:30:49;100312.22;;;5.25;100.00
29549;BME280;16487;53.094;8.800;2023-02-01T07:33:18;100334.22;;;5.32;100.00
29549;BME280;16487;53.094;8.800;2023-02-01T07:35:47;100308.16;;;5.33;100.00
29549;BME280;16487;53.094;8.800;2023-02-01T07:38:15;100352.75;;;5.35;100.00
29549;BME280;16487;53.094;8.800;2023-02-01T07:40:43;100342.66;;;5.48;100.00
29549;BME280;16487;53.094;8.800;2023-02-01T07:43:10;100345.38;;;5.51;100.00
29549;BME280;16487;53.094;8.800;2023-02-01T07:45:37;100366.47;;;5.42;100.00
29549;BME280;16487;53.094;8.800;2023-02-01T07:48:05;100348.66;;;5.43;100.00
29549;BME280;16487;53.094;8.800;2023-02-01T07:50:32;100364.03;;;5.44;100.00
29549;BME280;16487;53.094;8.800;2023-02-01T07:53:01;100359.13;;;5.55;100.00
29549;BME280;16487;53.094;8.800;2023-02-01T07:55:28;100364.66;;;5.55;100.00
29549;BME280;16487;53.094;8.800;2023-02-01T07:57:57;100353.56;;;5.58;100.00
29549;BME280;16487;53.094;8.800;2023-02-01T08:00:25;100342.81;;;5.64;100.00
29549;BME280;16487;53.094;8.800;2023-02-01T08:02:52;100347.88;;;5.69;100.00
29549;BME280;16487;53.094;8.800;2023-02-01T08:05:19;100334.53;;;5.64;100.00
29549;BME280;16487;53.094;8.800;2023-02-01T08:07:48;100340.06;;;5.64;100.00
29549;BME280;16487;53.094;8.800;2023-02-01T08:10:18;100348.16;;;5.74;100.00
29549;BME280;16487;53.094;8.800;2023-02-01T08:12:46;100332.22;;;5.82;100.00
29549;BME280;16487;53.094;8.800;2023-02-01T08:15:13;100346.06;;;5.82;100.00
29549;BME280;16487;53.094;8.800;2023-02-01T08:17:46;100321.56;;;5.84;100.00
29549;BME280;16487;53.094;8.800;2023-02-01T08:20:14;100325.91;;;5.85;100.00
29549;BME280;16487;53.094;8.800;2023-02-01T08:22:41;100332.56;;;5.88;100.00
29549;BME280;16487;53.094;8.800;2023-02-01T08:25:09;100334.91;;;5.89;100.00
29549;BME280;16487;53.094;8.800;2023-02-01T08:27:38;100324.94;;;5.95;100.00
29549;BME280;16487;53.094;8.800;2023-02-01T08:30:06;100325.31;;;5.97;100.00
29549;BME280;16487;53.094;8.800;2023-02-01T08:32:34;100307.13;;;5.96;100.00
29549;BME280;16487;53.094;8.800;2023-02-01T08:35:02;100319.41;;;5.95;100.00
29549;BME280;16487;53.094;8.800;2023-02-01T08:37:30;100306.69;;;5.98;100.00
29549;BME280;16487;53.094;8.800;2023-02-01T08:39:58;100295.88;;;6.07;100.00
29549;BME280;16487;53.094;8.800;2023-02-01T08:42:25;100297.38;;;6.11;100.00
29549;BME280;16487;53.094;8.800;2023-02-01T08:44:54;100288.59;;;6.16;100.00
29549;BME280;16487;53.094;8.800;2023-02-01T08:47:21;100301.88;;;6.25;100.00
29549;BME280;16487;53.094;8.800;2023-02-01T08:49:48;100272.47;;;6.31;100.00
29549;BME280;16487;53.094;8.800;2023-02-01T08:52:15;100265.94;;;6.41;100.00
29549;BME280;16487;53.094;8.800;2023-02-01T08:54:43;100255.81;;;6.34;100.00
29549;BME280;16487;53.094;8.800;2023-02-01T08:57:10;100257.78;;;6.34;100.00
29549;BME280;16487;53.094;8.800;2023-02-01T08:59:37;100278.72;;;6.35;100.00
29549;BME280;16487;53.094;8.800;2023-02-01T09:02:08;100250.13;;;6.41;100.00
29549;BME280;16487;53.094;8.800;2023-02-01T09:04:35;100231.63;;;6.38;100.00
29549;BME280;16487;53.094;8.800;2023-02-01T09:07:03;100222.31;;;6.48;100.00
29549;BME280;16487;53.094;8.800;2023-02-01T09:09:30;100213.56;;;6.50;100.00
29549;BME280;16487;53.094;8.800;2023-02-01T09:11:57;100215.41;;;6.56;100.00
29549;BME280;16487;53.094;8.800;2023-02-01T09:14:24;100207.97;;;6.53;100.00
29549;BME280;16487;53.094;8.800;2023-02-01T09:16:52;100218.88;;;6.60;100.00
29549;BME280;16487;53.094;8.800;2023-02-01T09:19:20;100211.28;;;6.64;100.00
29549;BME280;16487;53.094;8.800;2023-02-01T09:21:52;100181.50;;;6.68;100.00
29549;BME280;16487;53.094;8.800;2023-02-01T09:24:20;100195.69;;;6.70;100.00
29549;BME280;16487;53.094;8.800;2023-02-01T09:26:48;100193.13;;;6.79;100.00
29549;BME280;16487;53.094;8.800;2023-02-01T09:29:15;100186.03;;;6.78;100.00
29549;BME280;16487;53.094;8.800;2023-02-01T09:31:43;100171.75;;;6.80;100.00
29549;BME280;16487;53.094;8.800;2023-02-01T09:34:29;100181.19;;;6.82;100.00
29549;BME280;16487;53.094;8.800;2023-02-01T09:36:57;100152.97;;;6.87;100.00
29549;BME280;16487;53.094;8.800;2023-02-01T09:39:24;100139.28;;;6.80;100.00
29549;BME280;16487;53.094;8.800;2023-02-01T09:41:59;100140.06;;;6.81;100.00
29549;BME280;16487;53.094;8.800;2023-02-01T09:44:53;100143.81;;;6.74;100.00
29549;BME280;16487;53.094;8.800;2023-02-01T09:47:24;100123.38;;;6.84;100.00
29549;BME280;16487;53.094;8.800;2023-02-01T09:49:58;100116.38;;;6.80;100.00
29549;BME280;16487;53.094;8.800;2023-02-01T09:52:32;100123.81;;;6.83;100.00
29549;BME280;16487;53.094;8.800;2023-02-01T09:55:06;100121.13;;;6.79;100.00
29549;BME280;16487;53.094;8.800;2023-02-01T09:57:43;100140.84;;;6.81;100.00
29549;BME280;16487;53.094;8.800;2023-02-01T10:00:19;100109.09;;;6.86;100.00
29549;BME280;16487;53.094;8.800;2023-02-01T10:02:49;100105.88;;;6.87;100.00
29549;BME280;16487;53.094;8.800;2023-02-01T10:05:29;100114.53;;;6.89;100.00
29549;BME280;16487;53.094;8.800;2023-02-01T10:08:05;100095.16;;;6.89;100.00
29549;BME280;16487;53.094;8.800;2023-02-01T10:10:41;100095.94;;;6.90;100.00
29549;BME280;16487;53.094;8.800;2023-02-01T10:13:27;100082.19;;;6.86;100.00
29549;BME280;16487;53.094;8.800;2023-02-01T10:16:09;100077.25;;;6.94;100.00
29549;BME280;16487;53.094;8.800;2023-02-01T10:18:53;100077.44;;;6.87;100.00
29549;BME280;16487;53.094;8.800;2023-02-01T10:21:46;100069.81;;;6.75;100.00
29549;BME280;16487;53.094;8.800;2023-02-01T10:24:23;100078.56;;;6.57;100.00
29549;BME280;16487;53.094;8.800;2023-02-01T10:26:56;100112.28;;;6.52;100.00
29549;BME280;16487;53.094;8.800;2023-02-01T10:29:32;100101.66;;;6.51;100.00
29549;BME280;16487;53.094;8.800;2023-02-01T10:32:02;100067.66;;;6.50;100.00
29549;BME280;16487;53.094;8.800;2023-02-01T10:34:32;100092.56;;;6.50;100.00
29549;BME280;16487;53.094;8.800;2023-02-01T10:37:18;100113.50;;;6.35;100.00
29549;BME280;16487;53.094;8.800;2023-02-01T10:39:47;100119.19;;;6.28;100.00
29549;BME280;16487;53.094;8.800;2023-02-01T10:42:16;100129.69;;;6.17;100.00
29549;BME280;16487;53.094;8.800;2023-02-01T10:44:46;100126.56;;;6.15;100.00
29549;BME280;16487;53.094;8.800;2023-02-01T10:47:14;100134.19;;;6.11;100.00
29549;BME280;16487;53.094;8.800;2023-02-01T10:49:47;100181.88;;;6.15;100.00
29549;BME280;16487;53.094;8.800;2023-02-01T10:52:21;100168.91;;;6.12;100.00
29549;BME280;16487;53.094;8.800;2023-02-01T10:54:52;100174.59;;;6.05;100.00
29549;BME280;16487;53.094;8.800;2023-02-01T10:57:22;100187.91;;;5.91;100.00
29549;BME280;16487;53.094;8.800;2023-02-01T10:59:49;100188.44;;;5.82;100.00
29549;BME280;16487;53.094;8.800;2023-02-01T11:02:23;100189.66;;;5.81;100.00
29549;BME280;16487;53.094;8.800;2023-02-01T11:04:59;100190.88;;;5.80;100.00
29549;BME280;16487;53.094;8.800;2023-02-01T11:07:29;100207.34;;;5.87;100.00
29549;BME280;16487;53.094;8.800;2023-02-01T11:09:57;100210.81;;;5.91;100.00
29549;BME280;16487;53.094;8.800;2023-02-01T11:12:28;100203.25;;;5.95;100.00
29549;BME280;16487;53.094;8.800;2023-02-01T11:15:03;100203.69;;;5.94;100.00
29549;BME280;16487;53.094;8.800;2023-02-01T11:17:33;100201.59;;;5.78;100.00
29549;BME280;16487;53.094;8.800;2023-02-01T11:20:04;100221.06;;;5.48;100.00
29549;BME280;16487;53.094;8.800;2023-02-01T11:22:34;100207.75;;;5.43;100.00
29549;BME280;16487;53.094;8.800;2023-02-01T11:25:08;100188.41;;;5.43;100.00
29549;BME280;16487;53.094;8.800;2023-02-01T11:27:38;100187.56;;;5.46;100.00
29549;BME280;16487;53.094;8.800;2023-02-01T11:30:27;100177.59;;;5.52;100.00
29549;BME280;16487;53.094;8.800;2023-02-01T11:32:59;100199.44;;;5.66;100.00
29549;BME280;16487;53.094;8.800;2023-02-01T11:35:28;100187.47;;;5.72;100.00
29549;BME280;16487;53.094;8.800;2023-02-01T11:37:59;100197.81;;;5.68;100.00
29549;BME280;16487;53.094;8.800;2023-02-01T11:40:29;100182.75;;;5.50;100.00
29549;BME280;16487;53.094;8.800;2023-02-01T11:43:08;100163.09;;;5.44;100.00
29549;BME280;16487;53.094;8.800;2023-02-01T11:45:35;100174.09;;;5.25;100.00
29549;BME280;16487;53.094;8.800;2023-02-01T11:48:08;100188.41;;;5.20;100.00
29549;BME280;16487;53.094;8.800;2023-02-01T11:50:48;100179.84;;;5.14;100.00
29549;BME280;16487;53.094;8.800;2023-02-01T11:53:36;100174.22;;;5.18;100.00
29549;BME280;16487;53.094;8.800;2023-02-01T11:56:14;100172.25;;;5.18;100.00
29549;BME280;16487;53.094;8.800;2023-02-01T11:59:11;100158.31;;;5.25;100.00
29549;BME280;16487;53.094;8.800;2023-02-01T12:01:53;100153.53;;;5.29;100.00
29549;BME280;16487;53.094;8.800;2023-02-01T12:04:44;100134.97;;;5.30;100.00
29549;BME280;16487;53.094;8.800;2023-02-01T12:07:19;100160.16;;;5.32;100.00
29549;BME280;16487;53.094;8.800;2023-02-01T12:10:00;100142.84;;;5.31;100.00
29549;BME280;16487;53.094;8.800;2023-02-01T12:12:38;100145.88;;;5.37;100.00
29549;BME280;16487;53.094;8.800;2023-02-01T12:15:27;100159.69;;;5.37;100.00
29549;BME280;16487;53.094;8.800;2023-02-01T12:18:12;100227.25;;;5.32;100.00
29549;BME280;16487;53.094;8.800;2023-02-01T12:20:58;100302.03;;;4.65;100.00
29549;BME280;16487;53.094;8.800;2023-02-01T12:23:37;100338.59;;;4.02;100.00
29549;BME280;16487;53.094;8.800;2023-02-01T12:26:35;100342.81;;;3.69;100.00
29549;BME280;16487;53.094;8.800;2023-02-01T12:29:24;100341.13;;;3.34;100.00
29549;BME280;16487;53.094;8.800;2023-02-01T12:32:20;100354.69;;;3.08;100.00
29549;BME280;16487;53.094;8.800;2023-02-01T12:35:09;100371.94;;;3.15;100.00
29549;BME280;16487;53.094;8.800;2023-02-01T12:37:51;100378.63;;;3.14;100.00
29549;BME280;16487;53.094;8.800;2023-02-01T12:40:31;100393.94;;;3.15;100.00
29549;BME280;16487;53.094;8.800;2023-02-01T12:43:09;100417.16;;;3.18;100.00
29549;BME280;16487;53.094;8.800;2023-02-01T12:45:40;100405.69;;;3.30;100.00
29549;BME280;16487;53.094;8.800;2023-02-01T12:48:23;100416.28;;;3.35;100.00
29549;BME280;16487;53.094;8.800;2023-02-01T12:50:54;100418.94;;;3.49;100.00
29549;BME280;16487;53.094;8.800;2023-02-01T12:53:25;100407.06;;;3.59;100.00
29549;BME280;16487;53.094;8.800;2023-02-01T12:55:55;100386.13;;;3.72;100.00
29549;BME280;16487;53.094;8.800;2023-02-01T12:58:27;100375.28;;;3.95;100.00
29549;BME280;16487;53.094;8.800;2023-02-01T13:01:01;100357.03;;;4.12;100.00
29549;BME280;16487;53.094;8.800;2023-02-01T13:03:35;100345.25;;;4.08;100.00
29549;BME280;16487;53.094;8.800;2023-02-01T13:06:08;100334.56;;;4.13;100.00
29549;BME280;16487;53.094;8.800;2023-02-01T13:08:43;100349.06;;;4.17;100.00
29549;BME280;16487;53.094;8.800;2023-02-01T13:11:16;100324.50;;;3.96;100.00
29549;BME280;16487;53.094;8.800;2023-02-01T13:13:52;100319.31;;;3.98;100.00
29549;BME280;16487;53.094;8.800;2023-02-01T13:16:26;100306.75;;;3.97;100.00